createdAt,value
2022-09-29T00:00:38.405Z,9.12
2022-09-29T00:03:05.504Z,8.62
2022-09-29T00:05:32.112Z,8.95
2022-09-29T00:07:58.650Z,9.11
2022-09-29T00:10:25.379Z,8.88
2022-09-29T00:12:51.954Z,9.13
2022-09-29T00:15:18.545Z,8.85
2022-09-29T00:18:02.986Z,8.75
2022-09-29T00:20:31.559Z,9.01
2022-09-29T00:22:58.095Z,8.93
2022-09-29T00:25:24.739Z,8.48
2022-09-29T00:27:51.320Z,8.96
2022-09-29T00:30:18.204Z,7.13
2022-09-29T00:32:45.491Z,8.92
2022-09-29T00:35:12.287Z,8.98
2022-09-29T00:37:40.077Z,8.45
2022-09-29T00:40:07.595Z,8.54
2022-09-29T00:42:34.172Z,9.03
2022-09-29T00:45:13.902Z,7.72
2022-09-29T00:47:43.620Z,9.03
2022-09-29T00:50:19.781Z,8.36
2022-09-29T00:52:55.874Z,8.66
2022-09-29T00:55:27.812Z,8.84
2022-09-29T00:58:09.393Z,8.65
2022-09-29T01:00:36.806Z,7.92
2022-09-29T01:03:16.314Z,8.32
2022-09-29T01:05:48.898Z,7.82
2022-09-29T01:08:23.062Z,8.76
2022-09-29T01:10:51.463Z,8.74
2022-09-29T01:13:19.560Z,8.54
2022-09-29T01:15:46.499Z,7.79
2022-09-29T01:18:13.084Z,8.58
2022-09-29T01:20:51.326Z,8.57
2022-09-29T01:23:41.329Z,6.54
2022-09-29T01:26:19.620Z,4.18
2022-09-29T01:29:36.372Z,8.70
2022-09-29T01:32:15.643Z,8.74
2022-09-29T01:35:01.023Z,8.70
2022-09-29T01:37:27.893Z,8.71
2022-09-29T01:40:13.972Z,7.93
2022-09-29T01:43:11.532Z,8.26
2022-09-29T01:45:42.902Z,8.74
2022-09-29T01:48:15.399Z,8.70
2022-09-29T01:50:48.632Z,8.65
2022-09-29T01:53:20.635Z,8.58
2022-09-29T01:55:52.726Z,8.55
2022-09-29T01:58:36.731Z,7.72
2022-09-29T02:01:09.947Z,8.66
2022-09-29T02:03:53.037Z,8.53
2022-09-29T02:06:23.595Z,8.75
2022-09-29T02:08:55.622Z,8.70
2022-09-29T02:11:22.964Z,8.68
2022-09-29T02:13:52.798Z,8.67
2022-09-29T02:16:24.499Z,8.70
2022-09-29T02:18:59.254Z,8.73
2022-09-29T02:21:27.305Z,8.00
2022-09-29T02:23:54.424Z,7.08
2022-09-29T02:26:21.227Z,8.84
2022-09-29T02:28:48.085Z,7.93
2022-09-29T02:31:14.738Z,8.75
2022-09-29T02:33:41.463Z,8.53
2022-09-29T02:36:33.256Z,8.69
2022-09-29T02:39:08.857Z,8.63
2022-09-29T02:41:53.892Z,8.64
2022-09-29T02:44:41.338Z,7.97
2022-09-29T02:47:13.879Z,8.71
2022-09-29T02:49:57.443Z,8.63
2022-09-29T02:52:39.269Z,8.77
2022-09-29T02:55:20.018Z,8.71
2022-09-29T02:58:12.888Z,8.00
2022-09-29T03:00:40.367Z,8.57
2022-09-29T03:03:06.874Z,8.50
2022-09-29T03:05:33.624Z,8.07
2022-09-29T03:08:00.128Z,8.17
2022-09-29T03:10:30.011Z,8.10
2022-09-29T03:12:57.083Z,8.46
2022-09-29T03:15:24.424Z,7.72
2022-09-29T03:17:50.924Z,8.38
2022-09-29T03:20:17.417Z,8.55
2022-09-29T03:22:43.938Z,8.47
2022-09-29T03:25:12.693Z,7.64
2022-09-29T03:27:39.556Z,8.14
2022-09-29T03:30:06.713Z,8.28
2022-09-29T03:32:33.211Z,7.15
2022-09-29T03:34:59.796Z,7.42
2022-09-29T03:37:26.292Z,7.67
2022-09-29T03:39:52.819Z,7.93
2022-09-29T03:42:19.456Z,8.11
2022-09-29T03:44:45.924Z,7.54
2022-09-29T03:47:12.419Z,6.55
2022-09-29T03:49:39.034Z,8.14
2022-09-29T03:52:05.526Z,7.76
2022-09-29T03:54:32.330Z,7.54
2022-09-29T03:56:58.812Z,7.53
2022-09-29T03:59:25.325Z,8.08
2022-09-29T04:01:51.854Z,7.99
2022-09-29T04:04:18.521Z,8.19
2022-09-29T04:06:45.071Z,8.18
2022-09-29T04:09:11.680Z,8.18
2022-09-29T04:11:38.216Z,8.04
2022-09-29T04:14:04.934Z,6.23
2022-09-29T04:16:31.595Z,8.18
2022-09-29T04:18:58.294Z,7.72
2022-09-29T04:21:25.573Z,8.01
2022-09-29T04:23:52.588Z,7.12
2022-09-29T04:26:20.614Z,8.05
2022-09-29T04:28:47.874Z,7.74
2022-09-29T04:31:14.656Z,7.87
2022-09-29T04:33:41.637Z,6.90
2022-09-29T04:36:08.576Z,8.10
2022-09-29T04:38:35.299Z,7.87
2022-09-29T04:41:02.150Z,8.11
2022-09-29T04:43:28.840Z,7.87
2022-09-29T04:46:03.192Z,7.60
2022-09-29T04:48:32.512Z,7.57
2022-09-29T04:51:03.197Z,8.03
2022-09-29T04:53:29.830Z,8.08
2022-09-29T04:55:56.815Z,7.68
2022-09-29T04:58:23.408Z,7.70
2022-09-29T05:00:50.032Z,7.86
2022-09-29T05:03:17.171Z,7.81
2022-09-29T05:05:43.777Z,7.83
2022-09-29T05:08:10.315Z,8.01
2022-09-29T05:10:36.959Z,7.47
2022-09-29T05:13:03.443Z,7.52
2022-09-29T05:15:30.028Z,7.87
2022-09-29T05:17:56.585Z,7.87
2022-09-29T05:20:23.105Z,7.52
2022-09-29T05:22:49.637Z,7.85
2022-09-29T05:25:16.142Z,7.15
2022-09-29T05:27:42.626Z,7.80
2022-09-29T05:30:09.584Z,7.83
2022-09-29T05:32:36.048Z,7.33
2022-09-29T05:35:03.412Z,7.72
2022-09-29T05:37:30.144Z,5.79
2022-09-29T05:39:56.625Z,7.72
2022-09-29T05:42:25.841Z,8.08
2022-09-29T05:44:52.770Z,8.14
2022-09-29T05:47:19.737Z,8.17
2022-09-29T05:49:46.415Z,8.20
2022-09-29T05:52:13.046Z,7.21
2022-09-29T05:54:39.606Z,8.32
2022-09-29T05:57:06.933Z,6.62
2022-09-29T05:59:33.467Z,6.53
2022-09-29T06:02:00.063Z,8.29
2022-09-29T06:04:26.568Z,8.37
2022-09-29T06:06:53.456Z,8.45
2022-09-29T06:09:20.259Z,8.32
2022-09-29T06:11:46.868Z,8.53
2022-09-29T06:14:13.384Z,8.52
2022-09-29T06:16:39.948Z,7.98
2022-09-29T06:19:06.528Z,8.67
2022-09-29T06:21:35.259Z,8.74
2022-09-29T06:24:02.404Z,8.78
2022-09-29T06:26:29.759Z,8.21
2022-09-29T06:28:57.371Z,7.12
2022-09-29T06:31:26.472Z,7.24
2022-09-29T06:33:56.291Z,6.39
2022-09-29T06:36:47.315Z,8.96
2022-09-29T06:39:15.068Z,8.39
2022-09-29T06:41:44.536Z,8.83
2022-09-29T06:44:11.711Z,8.84
2022-09-29T06:46:38.795Z,8.87
2022-09-29T06:49:05.535Z,8.46
2022-09-29T06:51:43.504Z,7.83
2022-09-29T06:54:14.665Z,8.87
2022-09-29T06:56:41.227Z,8.95
2022-09-29T06:59:08.116Z,8.75
2022-09-29T07:01:34.996Z,9.14
2022-09-29T07:04:02.350Z,9.13
2022-09-29T07:06:29.468Z,7.44
2022-09-29T07:08:57.359Z,9.23
2022-09-29T07:11:23.854Z,9.29
2022-09-29T07:13:54.516Z,9.32
2022-09-29T07:16:23.767Z,8.81
2022-09-29T07:18:51.192Z,9.38
2022-09-29T07:21:18.712Z,9.24
2022-09-29T07:23:46.917Z,8.89
2022-09-29T07:26:16.736Z,9.44
2022-09-29T07:28:44.802Z,9.61
2022-09-29T07:31:15.779Z,9.63
2022-09-29T07:33:46.940Z,9.46
2022-09-29T07:36:15.524Z,9.59
2022-09-29T07:38:42.537Z,9.24
2022-09-29T07:41:11.739Z,8.97
2022-09-29T07:43:39.408Z,9.75
2022-09-29T07:46:06.935Z,9.73
2022-09-29T07:48:34.509Z,9.78
2022-09-29T07:51:05.987Z,9.80
2022-09-29T07:53:33.909Z,9.61
2022-09-29T07:56:05.968Z,9.97
2022-09-29T07:58:33.426Z,10.01
2022-09-29T08:01:01.458Z,9.07
2022-09-29T08:03:30.079Z,10.17
2022-09-29T08:05:58.005Z,10.15
2022-09-29T08:08:25.434Z,10.32
2022-09-29T08:10:53.792Z,10.25
2022-09-29T08:13:20.957Z,9.89
2022-09-29T08:15:47.635Z,10.12
2022-09-29T08:18:14.483Z,10.43
2022-09-29T08:20:41.217Z,10.54
2022-09-29T08:23:07.730Z,8.78
2022-09-29T08:25:35.604Z,10.36
2022-09-29T08:28:02.728Z,10.80
2022-09-29T08:30:29.656Z,10.38
2022-09-29T08:32:56.899Z,10.77
2022-09-29T08:35:23.773Z,10.81
2022-09-29T08:37:50.370Z,10.18
2022-09-29T08:40:17.800Z,10.84
2022-09-29T08:42:57.780Z,10.83
2022-09-29T08:45:31.980Z,10.86
2022-09-29T08:48:22.747Z,10.78
2022-09-29T08:51:03.853Z,11.00
2022-09-29T08:53:35.650Z,10.77
2022-09-29T08:56:14.995Z,9.96
2022-09-29T08:58:41.611Z,10.86
2022-09-29T09:01:29.799Z,10.97
2022-09-29T09:04:28.969Z,11.01
2022-09-29T09:07:01.275Z,10.95
2022-09-29T09:09:51.628Z,11.14
2022-09-29T09:12:27.403Z,11.25
2022-09-29T09:15:21.324Z,11.33
2022-09-29T09:17:53.624Z,11.28
2022-09-29T09:20:32.063Z,11.25
2022-09-29T09:23:11.915Z,11.26
2022-09-29T09:25:49.338Z,11.27
2022-09-29T09:28:25.703Z,10.60
2022-09-29T09:31:00.515Z,11.24
2022-09-29T09:33:34.751Z,11.05
2022-09-29T09:36:41.290Z,10.66
2022-09-29T09:39:25.450Z,11.00
2022-09-29T09:41:56.465Z,11.00
2022-09-29T09:44:29.523Z,10.93
2022-09-29T09:47:06.435Z,10.89
2022-09-29T09:49:37.969Z,10.87
2022-09-29T09:52:18.103Z,10.90
2022-09-29T09:54:46.361Z,10.90
2022-09-29T09:57:22.055Z,10.92
2022-09-29T10:00:13.584Z,10.91
2022-09-29T10:02:47.341Z,10.92
2022-09-29T10:05:16.745Z,10.71
2022-09-29T10:07:44.580Z,10.77
2022-09-29T10:10:21.914Z,11.06
2022-09-29T10:13:11.079Z,10.66
2022-09-29T10:15:46.419Z,10.66
2022-09-29T10:18:48.754Z,11.14
2022-09-29T10:21:20.583Z,10.54
2022-09-29T10:23:57.406Z,11.24
2022-09-29T10:26:27.764Z,9.74
2022-09-29T10:29:01.849Z,10.69
2022-09-29T10:31:34.730Z,11.12
2022-09-29T10:34:10.163Z,11.37
2022-09-29T10:36:59.352Z,11.36
2022-09-29T10:39:38.699Z,10.39
2022-09-29T10:42:23.900Z,10.53
2022-09-29T10:45:14.975Z,10.98
2022-09-29T10:47:44.905Z,11.19
2022-09-29T10:50:22.109Z,11.19
2022-09-29T10:52:57.928Z,10.83
2022-09-29T10:55:51.830Z,11.17
2022-09-29T10:58:57.635Z,11.09
2022-09-29T11:01:34.586Z,10.46
2022-09-29T11:04:12.991Z,10.51
2022-09-29T11:06:44.107Z,11.16
2022-09-29T11:09:14.159Z,11.18
2022-09-29T11:11:59.964Z,10.95
2022-09-29T11:14:36.244Z,11.12
2022-09-29T11:17:21.133Z,10.95
2022-09-29T11:19:47.687Z,10.59
2022-09-29T11:22:33.663Z,11.02
2022-09-29T11:25:04.717Z,11.09
2022-09-29T11:27:54.392Z,11.09
2022-09-29T11:30:41.181Z,11.10
2022-09-29T11:33:58.572Z,11.08
2022-09-29T11:37:09.935Z,11.09
2022-09-29T11:39:56.668Z,10.93
2022-09-29T11:42:58.809Z,10.45
2022-09-29T11:45:53.099Z,10.86
2022-09-29T11:48:43.325Z,10.95
2022-09-29T11:51:29.518Z,10.72
2022-09-29T11:54:14.640Z,10.96
2022-09-29T11:56:50.165Z,10.90
2022-09-29T11:59:55.486Z,10.95
2022-09-29T12:02:47.532Z,10.66
2022-09-29T12:05:28.901Z,10.92
2022-09-29T12:08:34.689Z,10.99
2022-09-29T12:11:50.861Z,10.70
2022-09-29T12:14:30.798Z,10.98
2022-09-29T12:17:02.612Z,11.02
2022-09-29T12:19:33.736Z,11.12
2022-09-29T12:22:03.192Z,10.93
2022-09-29T12:24:41.192Z,10.48
2022-09-29T12:27:16.754Z,11.13
2022-09-29T12:29:48.090Z,10.94
2022-09-29T12:32:29.834Z,10.39
2022-09-29T12:35:02.124Z,10.17
2022-09-29T12:37:43.020Z,11.06
2022-09-29T12:40:17.075Z,10.41
2022-09-29T12:42:49.363Z,10.62
2022-09-29T12:45:46.910Z,11.00
2022-09-29T12:48:45.904Z,10.57
2022-09-29T12:51:24.061Z,10.59
2022-09-29T12:53:59.980Z,10.49
2022-09-29T12:56:33.447Z,11.23
2022-09-29T12:59:09.554Z,11.28
2022-09-29T13:02:40.872Z,11.25
2022-09-29T13:05:37.544Z,11.13
2022-09-29T13:08:29.041Z,11.08
2022-09-29T13:11:25.291Z,11.07
2022-09-29T13:14:15.914Z,11.08
2022-09-29T13:16:42.356Z,11.03
2022-09-29T13:19:46.079Z,11.08
2022-09-29T13:22:30.376Z,9.53
2022-09-29T13:25:05.720Z,11.02
2022-09-29T13:27:37.504Z,10.39
2022-09-29T13:30:18.361Z,10.89
2022-09-29T13:32:48.832Z,10.75
2022-09-29T13:35:19.789Z,10.91
2022-09-29T13:37:56.914Z,10.78
2022-09-29T13:40:28.693Z,10.91
2022-09-29T13:43:00.407Z,10.94
2022-09-29T13:45:34.361Z,10.93
2022-09-29T13:48:22.561Z,10.91
2022-09-29T13:50:59.534Z,10.91
2022-09-29T13:53:35.497Z,10.69
2022-09-29T13:56:01.920Z,10.76
2022-09-29T13:58:39.183Z,10.10
2022-09-29T14:01:07.752Z,10.70
2022-09-29T14:03:47.581Z,10.17
2022-09-29T14:06:40.158Z,10.65
2022-09-29T14:09:19.969Z,10.67
2022-09-29T14:11:52.149Z,9.75
2022-09-29T14:14:29.863Z,9.82
2022-09-29T14:17:20.566Z,10.66
2022-09-29T14:20:24.695Z,10.34
2022-09-29T14:23:03.106Z,9.92
2022-09-29T14:25:31.761Z,10.53
2022-09-29T14:28:04.774Z,10.47
2022-09-29T14:30:31.452Z,10.47
2022-09-29T14:33:02.284Z,10.37
2022-09-29T14:35:47.583Z,9.99
2022-09-29T14:38:29.778Z,10.48
2022-09-29T14:41:06.129Z,10.37
2022-09-29T14:43:41.405Z,10.49
2022-09-29T14:46:48.299Z,10.46
2022-09-29T14:49:55.351Z,10.49
2022-09-29T14:52:46.333Z,10.51
2022-09-29T14:55:15.702Z,10.56
2022-09-29T14:58:07.077Z,10.59
2022-09-29T15:00:47.992Z,10.48
2022-09-29T15:03:27.849Z,10.74
2022-09-29T15:06:11.915Z,10.71
2022-09-29T15:08:39.947Z,10.82
2022-09-29T15:11:27.446Z,10.19
2022-09-29T15:13:55.452Z,9.81
2022-09-29T15:16:34.019Z,10.90
2022-09-29T15:19:06.836Z,10.93
2022-09-29T15:21:45.326Z,10.94
2022-09-29T15:24:31.606Z,10.82
2022-09-29T15:27:07.354Z,10.39
2022-09-29T15:29:33.936Z,10.95
2022-09-29T15:32:02.030Z,10.15
2022-09-29T15:34:28.679Z,10.88
2022-09-29T15:36:56.535Z,10.00
2022-09-29T15:39:33.102Z,10.88
2022-09-29T15:42:02.276Z,10.90
2022-09-29T15:44:33.579Z,10.43
2022-09-29T15:47:00.880Z,10.55
2022-09-29T15:49:29.107Z,10.76
2022-09-29T15:51:59.000Z,10.77
2022-09-29T15:54:34.720Z,10.41
2022-09-29T15:57:20.855Z,10.78
2022-09-29T15:59:51.343Z,9.63
2022-09-29T16:02:32.223Z,10.79
2022-09-29T16:05:03.379Z,9.96
2022-09-29T16:07:38.947Z,10.59
2022-09-29T16:10:17.196Z,10.75
2022-09-29T16:12:58.804Z,10.52
2022-09-29T16:15:30.305Z,10.73
2022-09-29T16:18:05.976Z,10.60
2022-09-29T16:20:35.337Z,9.89
2022-09-29T16:23:16.073Z,10.73
2022-09-29T16:25:43.763Z,9.92
2022-09-29T16:28:27.558Z,10.62
2022-09-29T16:31:22.369Z,10.39
2022-09-29T16:33:56.599Z,10.65
2022-09-29T16:36:29.105Z,10.63
2022-09-29T16:38:56.182Z,10.65
2022-09-29T16:41:38.484Z,10.59
2022-09-29T16:44:12.790Z,10.57
2022-09-29T16:47:04.968Z,10.53
2022-09-29T16:49:44.701Z,10.47
2022-09-29T16:52:33.893Z,10.22
2022-09-29T16:55:20.925Z,9.90
2022-09-29T16:57:55.539Z,9.04
2022-09-29T17:00:22.923Z,10.18
2022-09-29T17:02:53.432Z,9.17
2022-09-29T17:05:30.742Z,10.49
2022-09-29T17:08:04.226Z,10.53
2022-09-29T17:10:32.064Z,10.56
2022-09-29T17:13:40.823Z,10.60
2022-09-29T17:16:10.991Z,10.60
2022-09-29T17:18:52.232Z,10.59
2022-09-29T17:21:22.697Z,10.61
2022-09-29T17:23:49.227Z,10.49
2022-09-29T17:26:41.919Z,10.62
2022-09-29T17:29:08.397Z,10.61
2022-09-29T17:31:35.441Z,10.39
2022-09-29T17:34:07.788Z,10.63
2022-09-29T17:36:38.270Z,10.63
2022-09-29T17:39:04.893Z,9.91
2022-09-29T17:41:32.075Z,10.59
2022-09-29T17:43:58.548Z,10.57
2022-09-29T17:46:25.157Z,8.15
2022-09-29T17:48:51.930Z,10.37
2022-09-29T17:51:18.480Z,10.41
2022-09-29T17:53:47.653Z,10.68
2022-09-29T17:56:25.941Z,10.69
2022-09-29T17:58:53.936Z,10.49
2022-09-29T18:01:23.908Z,10.54
2022-09-29T18:03:51.839Z,9.55
2022-09-29T18:06:26.468Z,10.56
2022-09-29T18:08:54.669Z,10.54
2022-09-29T18:11:26.662Z,10.54
2022-09-29T18:13:53.532Z,10.11
2022-09-29T18:16:22.798Z,10.61
2022-09-29T18:18:55.506Z,10.67
2022-09-29T18:21:23.798Z,10.64
2022-09-29T18:23:50.425Z,10.64
2022-09-29T18:26:18.179Z,10.66
2022-09-29T18:28:48.415Z,10.68
2022-09-29T18:31:24.114Z,10.40
2022-09-29T18:33:51.119Z,10.66
2022-09-29T18:36:17.628Z,10.60
2022-09-29T18:38:44.283Z,9.72
2022-09-29T18:41:18.752Z,9.94
2022-09-29T18:43:47.865Z,10.54
2022-09-29T18:46:15.358Z,10.14
2022-09-29T18:48:42.346Z,9.73
2022-09-29T18:51:13.521Z,10.40
2022-09-29T18:53:41.288Z,10.14
